Time;durP1;ratioP1;P1;durP2;ratioP2;P2;SDS_P1;SDS_P2;PMS_P1;PMS_P2;Temp;Humidity;BMP_temperature;BMP_pressure;BME280_temperature;BME280_humidity;BME280_pressure;Samples;Min_cycle;Max_cycle;Signal;HPM_P1;HPM_P2
2021/03/11 00:01:18;;;;;;;;;;;20.40;34.60;;;;;;496067;240;1113;-72
2021/03/11 00:03:19;;;;;;;;;;;20.40;34.40;;;;;;496034;240;1117;-72
2021/03/11 00:05:20;;;;;;;;;;;20.40;34.10;;;;;;496095;240;1082;-72
2021/03/11 00:07:21;;;;;;;;;;;20.40;34.60;;;;;;496017;240;1142;-72
2021/03/11 00:09:23;;;;;;;;;;;20.40;34.70;;;;;;496371;240;1042;-72
2021/03/11 00:11:24;;;;;;;;;;;20.40;34.70;;;;;;496094;240;1309;-72
2021/03/11 00:13:25;;;;;;;;;;;20.40;34.60;;;;;;496062;240;1095;-72
2021/03/11 00:15:26;;;;;;;;;;;20.30;34.70;;;;;;496032;240;1115;-72
2021/03/11 00:17:28;;;;;;;;;;;20.40;34.50;;;;;;495947;240;2182;-72
2021/03/11 00:19:29;;;;;;;;;;;20.40;34.60;;;;;;496150;240;1136;-72
2021/03/11 00:21:30;;;;;;;;;;;20.40;34.60;;;;;;496003;240;1129;-72
2021/03/11 00:23:32;;;;;;;;;;;20.30;34.70;;;;;;496120;240;1068;-72
2021/03/11 00:25:33;;;;;;;;;;;20.30;34.80;;;;;;496069;240;1278;-71
2021/03/11 00:27:34;;;;;;;;;;;20.30;34.70;;;;;;495982;240;1098;-72
2021/03/11 00:29:35;;;;;;;;;;;20.50;34.40;;;;;;496112;240;1044;-72
2021/03/11 00:31:37;;;;;;;;;;;20.40;34.50;;;;;;496025;239;1206;-72
2021/03/11 00:33:39;;;;;;;;;;;20.50;34.50;;;;;;496396;240;1139;-72
2021/03/11 00:35:40;;;;;;;;;;;20.40;34.60;;;;;;496165;240;1076;-72
2021/03/11 00:37:41;;;;;;;;;;;20.40;34.50;;;;;;496102;240;2126;-72
2021/03/11 00:39:42;;;;;;;;;;;20.40;34.50;;;;;;496272;240;1055;-72
2021/03/11 00:41:44;;;;;;;;;;;20.40;34.60;;;;;;495962;240;1174;-72
2021/03/11 00:43:45;;;;;;;;;;;20.40;34.60;;;;;;496455;240;1061;-72
2021/03/11 00:45:49;;;;;;;;;;;20.50;34.40;;;;;;496086;240;1261;-72
2021/03/11 00:47:48;;;;;;;;;;;20.40;34.40;;;;;;496167;239;1363;-72
2021/03/11 00:49:50;;;;;;;;;;;20.40;34.50;;;;;;496180;240;1155;-72
2021/03/11 00:51:51;;;;;;;;;;;20.40;34.40;;;;;;496155;240;1144;-72
2021/03/11 00:53:52;;;;;;;;;;;20.40;34.50;;;;;;496445;240;1057;-72
2021/03/11 00:55:54;;;;;;;;;;;20.50;34.40;;;;;;496107;240;1357;-72
2021/03/11 00:57:55;;;;;;;;;;;20.40;34.50;;;;;;496143;240;2139;-72
2021/03/11 00:59:56;;;;;;;;;;;20.40;34.50;;;;;;496048;240;1075;-72
2021/03/11 01:01:57;;;;;;;;;;;20.40;34.40;;;;;;496125;240;1216;-72
2021/03/11 01:03:59;;;;;;;;;;;20.50;34.40;;;;;;496082;240;1184;-72
2021/03/11 01:06:00;;;;;;;;;;;20.40;34.50;;;;;;496050;240;1085;-72
2021/03/11 01:08:01;;;;;;;;;;;20.50;34.40;;;;;;496107;240;1100;-72
2021/03/11 01:10:03;;;;;;;;;;;20.40;34.50;;;;;;496096;240;1113;-72
2021/03/11 01:12:04;;;;;;;;;;;20.40;34.60;;;;;;496080;240;1056;-72
2021/03/11 01:14:05;;;;;;;;;;;20.40;34.50;;;;;;496099;240;1349;-72
2021/03/11 01:16:06;;;;;;;;;;;20.40;34.60;;;;;;496300;240;1043;-72
2021/03/11 01:18:08;;;;;;;;;;;20.40;34.20;;;;;;496132;240;2182;-72
2021/03/11 01:20:09;;;;;;;;;;;20.40;34.50;;;;;;496238;240;1151;-72
2021/03/11 01:22:10;;;;;;;;;;;20.40;34.70;;;;;;496140;240;1065;-72
2021/03/11 01:24:12;;;;;;;;;;;20.40;34.60;;;;;;496050;240;1053;-72
2021/03/11 01:26:13;;;;;;;;;;;20.50;34.60;;;;;;496088;240;1079;-72
2021/03/11 01:28:14;;;;;;;;;;;20.40;34.60;;;;;;496348;240;1035;-72
2021/03/11 01:30:16;;;;;;;;;;;20.40;34.60;;;;;;496186;240;1051;-72
2021/03/11 01:32:17;;;;;;;;;;;20.40;34.60;;;;;;496150;240;1070;-72
2021/03/11 01:34:18;;;;;;;;;;;20.40;34.60;;;;;;496147;240;1211;-72
2021/03/11 01:36:20;;;;;;;;;;;20.30;34.70;;;;;;496218;240;1102;-72
2021/03/11 01:38:21;;;;;;;;;;;20.40;34.80;;;;;;496125;240;2186;-72
2021/03/11 01:40:22;;;;;;;;;;;20.40;34.70;;;;;;496105;240;1109;-72
2021/03/11 01:42:23;;;;;;;;;;;20.40;34.70;;;;;;496048;240;1126;-72
2021/03/11 01:44:25;;;;;;;;;;;20.50;34.60;;;;;;496080;240;1083;-72
2021/03/11 01:46:26;;;;;;;;;;;20.50;34.50;;;;;;496176;240;1039;-72
2021/03/11 01:48:27;;;;;;;;;;;20.40;34.60;;;;;;496091;240;1019;-72
2021/03/11 01:50:29;;;;;;;;;;;20.50;34.50;;;;;;496104;240;1148;-72
2021/03/11 01:52:30;;;;;;;;;;;20.50;34.50;;;;;;496384;240;1145;-72
2021/03/11 01:54:31;;;;;;;;;;;20.50;34.30;;;;;;496118;240;1243;-72
2021/03/11 01:56:32;;;;;;;;;;;20.60;34.50;;;;;;496066;240;1105;-72
2021/03/11 01:58:34;;;;;;;;;;;20.50;34.40;;;;;;496128;240;2138;-72
2021/03/11 02:00:35;;;;;;;;;;;20.50;34.50;;;;;;496093;240;1150;-72
2021/03/11 02:02:36;;;;;;;;;;;20.50;34.50;;;;;;496065;240;1142;-72
2021/03/11 02:04:38;;;;;;;;;;;20.40;34.50;;;;;;496166;240;1157;-72
2021/03/11 02:06:39;;;;;;;;;;;20.50;34.50;;;;;;496045;240;1239;-72
2021/03/11 02:08:41;;;;;;;;;;;20.40;34.60;;;;;;496083;240;1100;-72
2021/03/11 02:10:41;;;;;;;;;;;20.40;34.70;;;;;;496110;240;1378;-72
2021/03/11 02:12:43;;;;;;;;;;;20.40;34.70;;;;;;496038;240;1105;-72
2021/03/11 02:14:44;;;;;;;;;;;20.30;34.70;;;;;;496087;240;1061;-72
2021/03/11 02:16:45;;;;;;;;;;;20.40;34.60;;;;;;496095;240;1158;-72
2021/03/11 02:18:47;;;;;;;;;;;20.50;34.50;;;;;;496198;240;2131;-72
2021/03/11 02:20:48;;;;;;;;;;;20.50;34.20;;;;;;496126;240;1237;-72
2021/03/11 02:22:49;;;;;;;;;;;20.50;34.30;;;;;;496157;240;1104;-72
2021/03/11 02:24:51;;;;;;;;;;;20.50;34.40;;;;;;496073;240;1063;-72
2021/03/11 02:26:52;;;;;;;;;;;20.50;34.20;;;;;;496369;240;1108;-72
2021/03/11 02:28:53;;;;;;;;;;;20.50;34.50;;;;;;496101;240;1250;-72
2021/03/11 02:30:54;;;;;;;;;;;20.60;34.50;;;;;;496044;240;1200;-72
2021/03/11 02:32:56;;;;;;;;;;;20.40;34.60;;;;;;496026;240;1080;-72
2021/03/11 02:34:57;;;;;;;;;;;20.40;34.70;;;;;;496054;240;1166;-72
2021/03/11 02:36:58;;;;;;;;;;;20.40;34.80;;;;;;496144;240;1190;-72
2021/03/11 02:39:00;;;;;;;;;;;20.30;34.70;;;;;;496057;240;2139;-71
2021/03/11 02:41:01;;;;;;;;;;;20.30;34.80;;;;;;496134;240;1049;-72
2021/03/11 02:43:02;;;;;;;;;;;20.40;34.70;;;;;;496111;240;1113;-72
2021/03/11 02:45:03;;;;;;;;;;;20.40;34.60;;;;;;496116;240;1090;-72
2021/03/11 02:47:05;;;;;;;;;;;20.60;34.50;;;;;;496010;240;1133;-72
2021/03/11 02:49:06;;;;;;;;;;;20.50;34.50;;;;;;496172;240;1061;-72
2021/03/11 02:51:07;;;;;;;;;;;20.50;34.40;;;;;;495949;240;1161;-72
2021/03/11 02:53:09;;;;;;;;;;;20.50;34.50;;;;;;496099;240;1051;-72
2021/03/11 02:55:10;;;;;;;;;;;20.40;34.60;;;;;;496328;240;1043;-72
2021/03/11 02:57:11;;;;;;;;;;;20.50;34.50;;;;;;495999;240;1218;-72
2021/03/11 02:59:12;;;;;;;;;;;20.50;34.40;;;;;;496190;240;2201;-72
2021/03/11 03:01:14;;;;;;;;;;;20.40;34.50;;;;;;496071;240;1630;-71
2021/03/11 03:03:15;;;;;;;;;;;20.60;34.50;;;;;;496476;240;1013;-71
2021/03/11 03:05:16;;;;;;;;;;;20.40;34.50;;;;;;496069;240;1154;-72
2021/03/11 03:07:18;;;;;;;;;;;20.50;34.50;;;;;;496061;240;1131;-72
2021/03/11 03:09:19;;;;;;;;;;;20.50;34.50;;;;;;496072;240;1158;-72
2021/03/11 03:11:20;;;;;;;;;;;20.50;34.40;;;;;;496096;240;1583;-72
2021/03/11 03:13:21;;;;;;;;;;;20.50;34.40;;;;;;496054;240;1063;-72
2021/03/11 03:15:23;;;;;;;;;;;20.60;34.30;;;;;;496113;240;1017;-72
2021/03/11 03:17:24;;;;;;;;;;;20.60;34.30;;;;;;496051;240;1175;-72
2021/03/11 03:19:25;;;;;;;;;;;20.60;34.20;;;;;;496215;240;2186;-72
2021/03/11 03:21:27;;;;;;;;;;;20.70;34.20;;;;;;496042;240;1144;-72
2021/03/11 03:23:28;;;;;;;;;;;20.70;34.20;;;;;;496367;240;1066;-72
2021/03/11 03:25:29;;;;;;;;;;;20.60;33.80;;;;;;496117;240;1054;-72
2021/03/11 03:27:30;;;;;;;;;;;20.60;34.40;;;;;;496085;240;1116;-72
2021/03/11 03:29:32;;;;;;;;;;;20.60;34.30;;;;;;496069;240;1060;-72
2021/03/11 03:31:33;;;;;;;;;;;20.50;34.40;;;;;;496255;240;1070;-72
2021/03/11 03:33:34;;;;;;;;;;;20.50;34.40;;;;;;496037;240;1066;-72
2021/03/11 03:35:35;;;;;;;;;;;20.50;34.30;;;;;;496109;240;1123;-72
2021/03/11 03:37:37;;;;;;;;;;;20.50;34.20;;;;;;496057;240;1098;-72
2021/03/11 03:39:38;;;;;;;;;;;20.50;34.30;;;;;;496292;240;2193;-72
2021/03/11 03:41:39;;;;;;;;;;;20.50;34.40;;;;;;495961;240;1166;-72
2021/03/11 03:43:41;;;;;;;;;;;20.40;34.30;;;;;;495998;240;1049;-72
2021/03/11 03:45:42;;;;;;;;;;;20.50;34.20;;;;;;496044;240;1145;-72
2021/03/11 03:47:44;;;;;;;;;;;20.40;34.50;;;;;;496097;240;1118;-72
2021/03/11 03:49:45;;;;;;;;;;;20.50;34.50;;;;;;496110;240;1049;-72
2021/03/11 03:51:46;;;;;;;;;;;20.40;34.00;;;;;;496048;240;1223;-72
2021/03/11 03:53:47;;;;;;;;;;;20.60;34.30;;;;;;495955;240;1141;-72
2021/03/11 03:55:49;;;;;;;;;;;20.60;34.30;;;;;;495998;240;1207;-72
2021/03/11 03:57:50;;;;;;;;;;;20.60;34.20;;;;;;496039;240;1147;-72
2021/03/11 03:59:52;;;;;;;;;;;20.60;34.30;;;;;;496216;240;2134;-72
2021/03/11 04:01:53;;;;;;;;;;;20.50;34.40;;;;;;496071;240;1124;-72
2021/03/11 04:03:54;;;;;;;;;;;20.50;34.40;;;;;;496120;240;1035;-72
2021/03/11 04:05:55;;;;;;;;;;;20.40;34.50;;;;;;496084;240;1194;-72
2021/03/11 04:07:57;;;;;;;;;;;20.50;34.60;;;;;;496073;240;1074;-72
2021/03/11 04:09:58;;;;;;;;;;;20.60;34.50;;;;;;496042;240;1065;-72
2021/03/11 04:11:59;;;;;;;;;;;20.60;34.40;;;;;;496009;240;1153;-72
2021/03/11 04:14:00;;;;;;;;;;;20.70;34.40;;;;;;496114;240;1069;-72
2021/03/11 04:16:02;;;;;;;;;;;20.70;34.30;;;;;;496106;240;1107;-72
2021/03/11 04:18:03;;;;;;;;;;;20.80;34.10;;;;;;495998;240;1049;-72
2021/03/11 04:20:04;;;;;;;;;;;20.80;34.10;;;;;;496065;240;2174;-72
2021/03/11 04:22:06;;;;;;;;;;;20.80;34.10;;;;;;496102;240;1143;-72
2021/03/11 04:24:07;;;;;;;;;;;20.90;34.20;;;;;;496166;240;1002;-72
2021/03/11 04:26:09;;;;;;;;;;;20.80;34.20;;;;;;496030;240;1098;-72
2021/03/11 04:28:10;;;;;;;;;;;20.80;34.20;;;;;;496068;240;1155;-72
2021/03/11 04:30:11;;;;;;;;;;;20.90;34.20;;;;;;496061;240;1152;-72
2021/03/11 04:32:12;;;;;;;;;;;21.00;34.10;;;;;;496044;240;1068;-72
2021/03/11 04:34:14;;;;;;;;;;;20.90;34.20;;;;;;504216;236;1036;-72
2021/03/11 04:36:15;;;;;;;;;;;21.00;34.00;;;;;;505911;235;1023;-72
2021/03/11 04:38:16;;;;;;;;;;;21.00;34.10;;;;;;506044;235;1403;-72
2021/03/11 04:40:18;;;;;;;;;;;21.00;34.00;;;;;;505439;235;2174;-72
2021/03/11 04:42:19;;;;;;;;;;;21.10;33.90;;;;;;505465;235;1071;-72
2021/03/11 04:44:20;;;;;;;;;;;21.00;33.80;;;;;;505405;236;1039;-72
2021/03/11 04:46:21;;;;;;;;;;;20.70;34.20;;;;;;505725;234;1300;-72
2021/03/11 04:48:23;;;;;;;;;;;20.60;34.80;;;;;;505714;236;1133;-72
2021/03/11 04:50:24;;;;;;;;;;;20.60;34.90;;;;;;505446;235;1087;-72
2021/03/11 04:52:25;;;;;;;;;;;20.60;35.00;;;;;;505405;236;1176;-72
2021/03/11 04:54:26;;;;;;;;;;;20.50;34.90;;;;;;505381;236;1045;-72
2021/03/11 04:56:28;;;;;;;;;;;20.50;34.90;;;;;;505398;236;1264;-72
2021/03/11 04:58:29;;;;;;;;;;;20.50;34.90;;;;;;505399;236;1022;-72
2021/03/11 05:00:30;;;;;;;;;;;20.50;35.00;;;;;;505578;236;2180;-72
2021/03/11 05:02:32;;;;;;;;;;;20.50;34.90;;;;;;505369;236;1151;-72
2021/03/11 05:04:33;;;;;;;;;;;20.50;34.90;;;;;;505362;236;976;-72
2021/03/11 05:06:34;;;;;;;;;;;20.50;35.00;;;;;;505377;236;1193;-72
2021/03/11 05:08:35;;;;;;;;;;;20.50;34.90;;;;;;505457;235;1159;-72
2021/03/11 05:10:37;;;;;;;;;;;20.50;34.90;;;;;;505416;236;1012;-72
2021/03/11 05:12:38;;;;;;;;;;;20.50;34.90;;;;;;505634;235;1075;-72
2021/03/11 05:14:39;;;;;;;;;;;20.50;34.90;;;;;;505370;236;1252;-72
2021/03/11 05:16:41;;;;;;;;;;;20.60;34.90;;;;;;505422;236;1162;-72
2021/03/11 05:18:42;;;;;;;;;;;20.50;34.80;;;;;;505334;235;2182;-72
2021/03/11 05:20:43;;;;;;;;;;;20.50;34.90;;;;;;505354;235;1086;-72
2021/03/11 05:22:44;;;;;;;;;;;20.50;34.80;;;;;;505431;235;1159;-72
2021/03/11 05:24:46;;;;;;;;;;;20.60;34.80;;;;;;505358;236;1038;-72
2021/03/11 05:26:47;;;;;;;;;;;20.60;34.80;;;;;;505546;235;1043;-72
2021/03/11 05:28:48;;;;;;;;;;;20.60;34.80;;;;;;505612;235;1069;-72
2021/03/11 05:30:49;;;;;;;;;;;20.60;34.60;;;;;;505614;235;1117;-72
2021/03/11 05:32:51;;;;;;;;;;;20.60;34.60;;;;;;505326;236;1142;-72
2021/03/11 05:34:52;;;;;;;;;;;20.70;34.10;;;;;;505379;236;1021;-72
2021/03/11 05:36:53;;;;;;;;;;;20.60;34.70;;;;;;505289;235;1015;-72
2021/03/11 05:38:55;;;;;;;;;;;20.60;34.70;;;;;;505489;236;2197;-72
2021/03/11 05:40:56;;;;;;;;;;;20.70;34.70;;;;;;505287;236;1052;-72
2021/03/11 05:42:57;;;;;;;;;;;20.60;34.60;;;;;;505286;236;1039;-72
2021/03/11 05:44:58;;;;;;;;;;;20.60;34.70;;;;;;505248;236;1044;-72
2021/03/11 05:47:00;;;;;;;;;;;20.60;34.80;;;;;;505240;236;1189;-72
2021/03/11 05:49:01;;;;;;;;;;;20.60;34.70;;;;;;505371;235;1169;-72
2021/03/11 05:51:02;;;;;;;;;;;20.60;34.60;;;;;;505334;235;1202;-72
2021/03/11 05:53:04;;;;;;;;;;;20.70;34.60;;;;;;505309;236;1135;-72
2021/03/11 05:55:05;;;;;;;;;;;20.70;34.60;;;;;;505464;235;1028;-72
2021/03/11 05:57:06;;;;;;;;;;;20.70;34.50;;;;;;505106;235;1136;-72
2021/03/11 05:59:07;;;;;;;;;;;20.70;34.50;;;;;;505162;236;2177;-72
2021/03/11 06:01:09;;;;;;;;;;;20.70;34.50;;;;;;505240;235;1431;-72
2021/03/11 06:03:10;;;;;;;;;;;20.70;34.50;;;;;;505342;235;1089;-72
2021/03/11 06:05:11;;;;;;;;;;;20.60;34.60;;;;;;505271;236;1109;-71
2021/03/11 06:07:12;;;;;;;;;;;20.60;34.60;;;;;;505230;235;1041;-71
2021/03/11 06:09:14;;;;;;;;;;;20.60;34.60;;;;;;505313;236;1159;-72
2021/03/11 06:11:15;;;;;;;;;;;20.60;34.60;;;;;;505158;236;1101;-72
2021/03/11 06:13:16;;;;;;;;;;;20.60;34.60;;;;;;505199;236;1064;-72
2021/03/11 06:15:19;;;;;;;;;;;20.60;34.60;;;;;;505163;236;1098;-72
2021/03/11 06:17:20;;;;;;;;;;;20.60;34.60;;;;;;505286;235;1200;-72
2021/03/11 06:19:21;;;;;;;;;;;20.70;34.60;;;;;;505141;236;2181;-72
2021/03/11 06:21:23;;;;;;;;;;;20.80;34.20;;;;;;505199;235;1223;-72
2021/03/11 06:23:24;;;;;;;;;;;20.90;34.10;;;;;;505230;235;1120;-72
2021/03/11 06:25:25;;;;;;;;;;;21.00;33.90;;;;;;505170;235;1091;-72
2021/03/11 06:27:26;;;;;;;;;;;21.20;33.80;;;;;;505201;235;1171;-72
2021/03/11 06:29:28;;;;;;;;;;;21.30;33.50;;;;;;505089;235;1054;-72
2021/03/11 06:31:29;;;;;;;;;;;21.40;33.30;;;;;;504979;236;1096;-72
2021/03/11 06:33:30;;;;;;;;;;;21.60;33.20;;;;;;505171;236;1026;-72
2021/03/11 06:35:32;;;;;;;;;;;21.50;33.20;;;;;;505228;235;1047;-72
2021/03/11 06:37:33;;;;;;;;;;;21.60;33.10;;;;;;505227;236;1122;-72
2021/03/11 06:39:34;;;;;;;;;;;21.60;33.00;;;;;;505217;236;2177;-72
2021/03/11 06:41:35;;;;;;;;;;;21.70;32.90;;;;;;505073;236;1249;-72
2021/03/11 06:43:37;;;;;;;;;;;21.70;33.00;;;;;;505125;235;1063;-72
2021/03/11 06:45:38;;;;;;;;;;;21.60;33.00;;;;;;504957;236;1049;-73
2021/03/11 06:47:39;;;;;;;;;;;21.70;32.90;;;;;;505182;235;1168;-72
2021/03/11 06:49:40;;;;;;;;;;;21.80;32.90;;;;;;505083;236;1073;-72
2021/03/11 06:51:42;;;;;;;;;;;21.80;32.80;;;;;;505073;235;1134;-72
2021/03/11 06:53:43;;;;;;;;;;;21.80;32.70;;;;;;504908;236;1110;-72
2021/03/11 06:55:44;;;;;;;;;;;21.90;32.70;;;;;;504898;236;1193;-72
2021/03/11 06:57:46;;;;;;;;;;;21.90;32.70;;;;;;505206;235;1088;-72
2021/03/11 06:59:47;;;;;;;;;;;21.90;32.50;;;;;;505011;236;2138;-72
2021/03/11 07:01:48;;;;;;;;;;;21.90;32.60;;;;;;505126;235;1079;-72
2021/03/11 07:03:49;;;;;;;;;;;21.90;32.60;;;;;;504968;236;1143;-72
2021/03/11 07:05:51;;;;;;;;;;;22.00;32.50;;;;;;505067;235;1200;-72
2021/03/11 07:07:52;;;;;;;;;;;22.00;32.50;;;;;;504969;235;1040;-72
2021/03/11 07:09:53;;;;;;;;;;;22.00;32.60;;;;;;504926;235;1211;-72
2021/03/11 07:11:55;;;;;;;;;;;21.90;32.60;;;;;;504704;236;1166;-72
2021/03/11 07:13:56;;;;;;;;;;;22.00;32.50;;;;;;504833;235;1228;-72
2021/03/11 07:15:57;;;;;;;;;;;22.10;32.40;;;;;;504774;235;1146;-72
2021/03/11 07:17:59;;;;;;;;;;;22.00;32.20;;;;;;504834;235;1078;-72
2021/03/11 07:20:00;;;;;;;;;;;22.00;32.50;;;;;;504638;236;2106;-72
2021/03/11 07:22:01;;;;;;;;;;;21.90;32.60;;;;;;504578;236;1081;-72
2021/03/11 07:24:03;;;;;;;;;;;22.10;32.40;;;;;;504951;235;1090;-72
2021/03/11 07:26:04;;;;;;;;;;;22.00;32.50;;;;;;504826;235;1222;-72
2021/03/11 07:28:05;;;;;;;;;;;22.10;32.50;;;;;;505050;235;1087;-72
2021/03/11 07:30:07;;;;;;;;;;;22.10;32.50;;;;;;504892;235;1171;-72
2021/03/11 07:32:08;;;;;;;;;;;22.10;32.40;;;;;;504697;235;1222;-72
2021/03/11 07:34:10;;;;;;;;;;;22.10;32.40;;;;;;504796;235;1081;-72
2021/03/11 07:36:11;;;;;;;;;;;22.10;32.40;;;;;;504605;236;1167;-72
2021/03/11 07:38:12;;;;;;;;;;;22.10;32.40;;;;;;504633;236;1154;-72
2021/03/11 07:40:13;;;;;;;;;;;22.10;32.40;;;;;;504592;236;2169;-72
2021/03/11 07:42:15;;;;;;;;;;;22.10;32.40;;;;;;505045;235;1194;-72
2021/03/11 07:44:16;;;;;;;;;;;22.10;32.40;;;;;;505036;235;1048;-72
2021/03/11 07:46:17;;;;;;;;;;;22.10;32.40;;;;;;504594;236;1210;-72
2021/03/11 07:48:18;;;;;;;;;;;22.10;32.40;;;;;;504827;235;1088;-72
2021/03/11 07:50:20;;;;;;;;;;;22.20;32.30;;;;;;504771;236;1072;-72
2021/03/11 07:52:21;;;;;;;;;;;22.10;32.40;;;;;;505042;235;1148;-72
2021/03/11 07:54:22;;;;;;;;;;;22.20;32.20;;;;;;504697;236;1186;-72
2021/03/11 07:56:24;;;;;;;;;;;22.30;32.40;;;;;;504704;236;1151;-72
2021/03/11 07:58:25;;;;;;;;;;;22.30;32.20;;;;;;504722;236;1051;-72
2021/03/11 08:00:26;;;;;;;;;;;22.30;32.10;;;;;;504550;236;2177;-72
2021/03/11 08:02:29;;;;;;;;;;;22.30;32.20;;;;;;504871;235;1290;-72
2021/03/11 08:04:29;;;;;;;;;;;22.30;32.20;;;;;;504790;236;1355;-72
2021/03/11 08:06:30;;;;;;;;;;;22.30;32.20;;;;;;504660;236;1158;-72
2021/03/11 08:08:31;;;;;;;;;;;22.40;32.10;;;;;;504679;236;1074;-72
2021/03/11 08:10:32;;;;;;;;;;;22.50;32.10;;;;;;504796;236;1206;-72
2021/03/11 08:12:34;;;;;;;;;;;22.50;31.90;;;;;;504677;235;1067;-72
2021/03/11 08:14:35;;;;;;;;;;;22.60;31.80;;;;;;504498;235;1077;-72
2021/03/11 08:16:36;;;;;;;;;;;22.60;31.90;;;;;;504402;235;1120;-72
2021/03/11 08:18:38;;;;;;;;;;;22.60;31.90;;;;;;504711;236;1089;-72
2021/03/11 08:20:39;;;;;;;;;;;22.50;32.00;;;;;;504666;235;2177;-72
2021/03/11 08:22:40;;;;;;;;;;;22.40;32.10;;;;;;504672;236;1099;-72
2021/03/11 08:24:42;;;;;;;;;;;22.30;32.30;;;;;;504645;235;1292;-72
2021/03/11 08:26:43;;;;;;;;;;;22.30;32.20;;;;;;501743;237;1105;-72
2021/03/11 08:28:44;;;;;;;;;;;22.10;32.30;;;;;;495201;240;1078;-72
2021/03/11 08:30:46;;;;;;;;;;;21.90;32.50;;;;;;495126;240;1170;-72
2021/03/11 08:32:47;;;;;;;;;;;21.80;32.50;;;;;;502504;237;1400;-72
2021/03/11 08:34:48;;;;;;;;;;;21.70;32.70;;;;;;494965;239;1119;-72
2021/03/11 08:36:50;;;;;;;;;;;21.70;32.60;;;;;;495250;240;1319;-72
2021/03/11 08:38:51;;;;;;;;;;;21.70;32.60;;;;;;495208;240;1216;-72
2021/03/11 08:40:52;;;;;;;;;;;21.70;32.60;;;;;;495179;240;2178;-72
2021/03/11 08:42:54;;;;;;;;;;;21.50;32.60;;;;;;495939;240;1082;-72
2021/03/11 08:44:55;;;;;;;;;;;21.40;32.80;;;;;;503915;236;1078;-72
2021/03/11 08:46:56;;;;;;;;;;;21.30;32.80;;;;;;504699;234;1295;-72
2021/03/11 08:48:58;;;;;;;;;;;21.30;32.80;;;;;;503851;236;1077;-72
2021/03/11 08:50:59;;;;;;;;;;;21.50;32.60;;;;;;504661;236;1166;-72
2021/03/11 08:53:00;;;;;;;;;;;21.40;32.60;;;;;;503870;236;1095;-72
2021/03/11 08:55:01;;;;;;;;;;;21.50;32.50;;;;;;504461;234;1212;-72
2021/03/11 08:57:03;;;;;;;;;;;21.60;32.40;;;;;;503666;236;1108;-72
2021/03/11 08:59:04;;;;;;;;;;;21.50;32.40;;;;;;504602;235;1108;-72
2021/03/11 09:01:05;;;;;;;;;;;21.50;32.40;;;;;;503715;236;2142;-72
2021/03/11 09:03:06;;;;;;;;;;;21.50;32.60;;;;;;504751;234;1207;-72
2021/03/11 09:05:08;;;;;;;;;;;21.50;32.80;;;;;;503929;236;1110;-72
2021/03/11 09:07:09;;;;;;;;;;;21.40;32.90;;;;;;504949;235;1277;-72
2021/03/11 09:09:10;;;;;;;;;;;21.50;32.90;;;;;;503920;236;1115;-72
2021/03/11 09:11:12;;;;;;;;;;;21.50;32.80;;;;;;504686;235;1174;-72
2021/03/11 09:13:13;;;;;;;;;;;21.50;32.90;;;;;;490111;242;1077;-72
2021/03/11 09:15:15;;;;;;;;;;;21.60;32.90;;;;;;488151;241;1121;-72
2021/03/11 09:17:15;;;;;;;;;;;21.60;33.00;;;;;;495219;239;1249;-72
2021/03/11 09:19:17;;;;;;;;;;;21.60;33.00;;;;;;503850;236;1111;-72
2021/03/11 09:21:18;;;;;;;;;;;21.50;33.20;;;;;;504549;235;2165;-72
2021/03/11 09:23:19;;;;;;;;;;;21.60;33.20;;;;;;503971;236;1061;-72
2021/03/11 09:25:21;;;;;;;;;;;21.70;33.00;;;;;;504579;235;1211;-72
2021/03/11 09:27:22;;;;;;;;;;;21.60;33.30;;;;;;503786;236;1206;-72
2021/03/11 09:29:23;;;;;;;;;;;21.60;33.20;;;;;;504605;234;1095;-72
2021/03/11 09:31:25;;;;;;;;;;;21.60;33.30;;;;;;503709;236;1058;-72
2021/03/11 09:33:26;;;;;;;;;;;21.70;33.40;;;;;;504708;234;1114;-72
2021/03/11 09:35:27;;;;;;;;;;;21.60;33.40;;;;;;503913;236;1079;-72
2021/03/11 09:37:28;;;;;;;;;;;21.60;33.40;;;;;;504651;236;1141;-72
2021/03/11 09:39:30;;;;;;;;;;;21.60;33.60;;;;;;490115;241;1469;-72
2021/03/11 09:41:32;;;;;;;;;;;21.60;33.50;;;;;;499851;236;2176;-72
2021/03/11 09:43:33;;;;;;;;;;;21.60;33.30;;;;;;500003;237;1114;-72
2021/03/11 09:45:34;;;;;;;;;;;21.60;33.10;;;;;;499700;236;1115;-72
2021/03/11 09:47:35;;;;;;;;;;;21.60;33.30;;;;;;488057;242;1099;-72
2021/03/11 09:49:37;;;;;;;;;;;21.60;33.40;;;;;;495281;239;1101;-72
2021/03/11 09:51:38;;;;;;;;;;;21.50;33.50;;;;;;495340;240;1099;-72
2021/03/11 09:53:39;;;;;;;;;;;21.50;33.60;;;;;;495238;240;1143;-72
2021/03/11 09:55:40;;;;;;;;;;;21.40;33.80;;;;;;495142;240;1217;-72
2021/03/11 09:57:42;;;;;;;;;;;21.40;33.90;;;;;;503709;236;1168;-72
2021/03/11 09:59:43;;;;;;;;;;;21.40;33.90;;;;;;504616;234;1069;-72
2021/03/11 10:01:45;;;;;;;;;;;21.50;33.80;;;;;;503593;236;2186;-72
2021/03/11 10:03:46;;;;;;;;;;;21.40;33.70;;;;;;504545;235;1191;-72
2021/03/11 10:05:47;;;;;;;;;;;21.40;33.70;;;;;;503782;236;1285;-72
2021/03/11 10:07:48;;;;;;;;;;;21.40;33.60;;;;;;504573;235;1105;-72
2021/03/11 10:09:52;;;;;;;;;;;21.50;33.50;;;;;;503589;236;1091;-72
2021/03/11 10:11:52;;;;;;;;;;;21.40;33.50;;;;;;504704;234;1320;-72
2021/03/11 10:13:53;;;;;;;;;;;21.40;33.60;;;;;;504047;236;1431;-72
2021/03/11 10:15:54;;;;;;;;;;;21.30;33.50;;;;;;504407;235;1184;-72
2021/03/11 10:17:55;;;;;;;;;;;21.20;33.60;;;;;;504002;236;1285;-72
2021/03/11 10:19:56;;;;;;;;;;;21.00;33.70;;;;;;504602;234;1092;-72
2021/03/11 10:21:57;;;;;;;;;;;21.10;33.70;;;;;;503611;236;2178;-72
2021/03/11 10:23:59;;;;;;;;;;;21.00;33.60;;;;;;504536;235;1076;-72
2021/03/11 10:26:00;;;;;;;;;;;21.00;33.70;;;;;;489994;242;1233;-72
2021/03/11 10:28:02;;;;;;;;;;;21.00;33.60;;;;;;487950;243;1120;-72
2021/03/11 10:30:03;;;;;;;;;;;20.90;33.50;;;;;;495199;239;1130;-72
2021/03/11 10:32:04;;;;;;;;;;;20.90;33.60;;;;;;503726;236;1082;-72
2021/03/11 10:34:05;;;;;;;;;;;20.90;33.40;;;;;;504555;234;1178;-72
2021/03/11 10:36:07;;;;;;;;;;;20.80;33.50;;;;;;503685;236;1431;-72
2021/03/11 10:38:08;;;;;;;;;;;20.90;33.40;;;;;;504489;235;1039;-72
2021/03/11 10:40:09;;;;;;;;;;;20.90;33.60;;;;;;489760;242;1132;-72
2021/03/11 10:42:11;;;;;;;;;;;20.90;33.60;;;;;;495709;240;2170;-72
2021/03/11 10:44:12;;;;;;;;;;;20.80;33.70;;;;;;503653;235;1126;-72
2021/03/11 10:46:13;;;;;;;;;;;20.90;33.70;;;;;;504451;234;1388;-72
2021/03/11 10:48:14;;;;;;;;;;;20.90;33.80;;;;;;489048;242;1064;-72
2021/03/11 10:50:16;;;;;;;;;;;20.90;33.90;;;;;;487940;241;1094;-72
2021/03/11 10:52:18;;;;;;;;;;;20.90;33.90;;;;;;495023;239;1145;-72
2021/03/11 10:54:19;;;;;;;;;;;20.80;34.00;;;;;;503781;236;1137;-72
2021/03/11 10:56:20;;;;;;;;;;;20.80;34.00;;;;;;504653;235;1166;-72
2021/03/11 10:58:21;;;;;;;;;;;20.80;34.00;;;;;;490145;241;1135;-72
2021/03/11 11:00:22;;;;;;;;;;;20.80;34.20;;;;;;494820;239;1214;-72
2021/03/11 11:02:24;;;;;;;;;;;20.80;34.20;;;;;;503988;236;2138;-72
2021/03/11 11:04:25;;;;;;;;;;;20.90;34.10;;;;;;504599;235;1078;-72
2021/03/11 11:06:26;;;;;;;;;;;20.90;34.10;;;;;;503744;232;1499;-73
2021/03/11 11:08:27;;;;;;;;;;;20.90;34.20;;;;;;504392;234;1165;-72
2021/03/11 11:10:29;;;;;;;;;;;21.00;34.10;;;;;;503562;236;1164;-72
2021/03/11 11:12:30;;;;;;;;;;;21.10;34.00;;;;;;504373;234;1256;-72
2021/03/11 11:14:31;;;;;;;;;;;21.30;33.90;;;;;;503735;236;1041;-72
2021/03/11 11:16:33;;;;;;;;;;;21.30;33.90;;;;;;504450;234;1061;-72
2021/03/11 11:18:34;;;;;;;;;;;21.30;33.90;;;;;;503515;236;1220;-72
2021/03/11 11:20:36;;;;;;;;;;;21.50;33.80;;;;;;504316;234;1095;-72
2021/03/11 11:22:37;;;;;;;;;;;21.50;33.70;;;;;;503296;236;2170;-72
2021/03/11 11:24:38;;;;;;;;;;;21.60;33.80;;;;;;504611;235;1012;-72
2021/03/11 11:26:39;;;;;;;;;;;21.50;33.80;;;;;;503633;236;1042;-72
2021/03/11 11:28:41;;;;;;;;;;;21.50;33.80;;;;;;504826;235;1188;-72
2021/03/11 11:30:42;;;;;;;;;;;21.50;33.90;;;;;;503525;236;1193;-72
2021/03/11 11:32:43;;;;;;;;;;;21.60;33.90;;;;;;504302;236;1079;-72
2021/03/11 11:34:44;;;;;;;;;;;21.50;33.90;;;;;;503829;236;1207;-72
2021/03/11 11:36:46;;;;;;;;;;;21.50;33.90;;;;;;504667;234;1102;-72
2021/03/11 11:38:47;;;;;;;;;;;21.60;33.90;;;;;;489868;241;1054;-72
2021/03/11 11:40:48;;;;;;;;;;;21.60;33.80;;;;;;488050;241;2143;-72
2021/03/11 11:42:50;;;;;;;;;;;21.60;33.80;;;;;;495287;239;1072;-72
2021/03/11 11:44:51;;;;;;;;;;;21.60;33.70;;;;;;503467;236;1142;-72
2021/03/11 11:46:52;;;;;;;;;;;21.70;33.60;;;;;;504284;234;1191;-72
2021/03/11 11:48:54;;;;;;;;;;;21.70;33.50;;;;;;503754;236;1104;-72
2021/03/11 11:50:55;;;;;;;;;;;21.80;33.40;;;;;;504744;234;1216;-72
2021/03/11 11:52:57;;;;;;;;;;;21.80;33.40;;;;;;490495;241;1103;-72
2021/03/11 11:54:58;;;;;;;;;;;21.70;33.50;;;;;;499669;236;1084;-72
2021/03/11 11:56:59;;;;;;;;;;;21.70;33.50;;;;;;488094;243;1077;-72